Time;durP1;ratioP1;P1;durP2;ratioP2;P2;SDS_P1;SDS_P2;PMS_P1;PMS_P2;Temp;Humidity;BMP_temperature;BMP_pressure;BME280_temperature;BME280_humidity;BME280_pressure;Samples;Min_cycle;Max_cycle;Signal;HPM_P1;HPM_P2
2021/12/21 00:03:47;;;;;;;30.02;8.23;;;;;;;-1.16;86.26;100068.41;8473214;27;20047;-89
2021/12/21 00:07:51;;;;;;;23.83;7.00;;;;;;;-1.12;85.94;100063.50;8471839;27;20126;-85
2021/12/21 00:11:52;;;;;;;25.38;7.18;;;;;;;-1.14;85.27;100076.16;8469916;27;20133;-86
2021/12/21 00:24:41;;;;;;;29.02;8.13;;;;;;;-1.22;85.32;100073.75;8451510;27;20471;-87
2021/12/21 00:32:45;;;;;;;26.13;8.13;;;;;;;-1.21;84.95;100073.50;8463523;28;20051;-87
2021/12/21 00:36:47;;;;;;;22.52;7.03;;;;;;;-1.17;84.53;100081.88;8445367;27;20043;-87
2021/12/21 00:40:48;;;;;;;24.27;7.50;;;;;;;-1.18;84.16;100070.47;8471691;27;20491;-87
2021/12/21 00:44:49;;;;;;;26.02;6.85;;;;;;;-1.20;84.09;100076.97;8445192;28;20035;-88
2021/12/21 00:48:53;;;;;;;28.20;7.72;;;;;;;-1.20;84.29;100076.97;8463182;28;20035;-88
2021/12/21 00:52:54;;;;;;;26.55;8.30;;;;;;;-1.18;84.50;100090.84;8457391;27;20043;-87
2021/12/21 00:56:55;;;;;;;23.13;7.00;;;;;;;-1.19;84.52;100090.03;8449029;28;20050;-87
2021/12/21 01:00:56;;;;;;;23.05;6.57;;;;;;;-1.21;84.20;100085.94;8461643;28;20039;-87
2021/12/21 01:04:58;;;;;;;21.77;6.63;;;;;;;-1.24;84.43;100092.50;8443370;28;20064;-88
2021/12/21 01:17:18;;;;;;;19.83;6.00;;;;;;;-1.39;84.84;100095.38;8462266;28;20079;-88
2021/12/21 01:21:22;;;;;;;21.77;6.55;;;;;;;-1.39;84.82;100090.09;8462621;28;20036;-86
2021/12/21 01:25:48;;;;;;;16.08;6.10;;;;;;;-1.42;84.83;100106.38;8444650;28;20036;-84
2021/12/21 01:38:45;;;;;;;18.92;5.80;;;;;;;-1.42;84.77;100103.72;8323079;28;20046;-82
2021/12/21 01:51:12;;;;;;;22.52;6.15;;;;;;;-1.29;84.05;100111.66;8303624;28;20103;-85
2021/12/21 01:55:13;;;;;;;16.75;5.50;;;;;;;-1.27;84.86;100097.41;8323442;28;20053;-85
2021/12/21 01:59:14;;;;;;;17.65;5.88;;;;;;;-1.32;85.42;100101.47;8325834;28;20119;-85
2021/12/21 02:03:15;;;;;;;17.67;5.78;;;;;;;-1.34;85.39;100098.22;8298114;28;20076;-86
2021/12/21 02:07:16;;;;;;;18.55;5.63;;;;;;;-1.37;85.73;100093.31;8390674;27;20043;-87
2021/12/21 02:11:18;;;;;;;15.88;5.63;;;;;;;-1.40;85.82;100092.94;8455405;27;20138;-85
2021/12/21 02:15:19;;;;;;;14.98;6.03;;;;;;;-1.41;86.18;100086.81;8405925;28;20447;-84
2021/12/21 02:23:35;;;;;;;20.63;6.40;;;;;;;-1.43;85.63;100088.84;8380814;28;20072;-86
2021/12/21 02:27:55;;;;;;;15.05;5.68;;;;;;;-1.42;85.94;100085.19;8377645;28;20131;-86
2021/12/21 02:31:56;;;;;;;18.20;6.03;;;;;;;-1.44;84.96;100081.94;8385224;28;20095;-85
2021/12/21 02:35:57;;;;;;;20.08;5.82;;;;;;;-1.49;85.66;100079.09;8405340;28;20139;-85
2021/12/21 02:39:58;;;;;;;17.95;6.10;;;;;;;-1.47;85.43;100082.34;8400608;28;20044;-85
2021/12/21 02:43:59;;;;;;;20.10;5.93;;;;;;;-1.45;85.77;100074.19;8422098;27;20074;-85
2021/12/21 02:48:00;;;;;;;21.67;6.22;;;;;;;-1.48;85.73;100075.41;8453817;28;20135;-87
2021/12/21 02:52:00;;;;;;;18.95;5.40;;;;;;;-1.45;85.64;100067.06;8465103;27;20165;-83
2021/12/21 02:56:01;;;;;;;14.48;5.78;;;;;;;-1.45;85.44;100068.91;8500223;27;20044;-85
2021/12/21 03:00:04;;;;;;;13.80;5.72;;;;;;;-1.45;85.76;100064.41;8468859;27;20118;-87
2021/12/21 03:04:08;;;;;;;16.45;5.78;;;;;;;-1.42;86.09;100060.53;8446797;27;20044;-86
2021/12/21 03:08:23;;;;;;;17.83;5.65;;;;;;;-1.41;85.80;100068.28;8482337;27;20146;-84
2021/12/21 03:16:26;;;;;;;17.35;6.05;;;;;;;-1.41;85.70;100070.91;8431219;28;20040;-85
2021/12/21 03:20:27;;;;;;;15.40;5.47;;;;;;;-1.42;85.87;100064.00;8442591;28;20075;-86
2021/12/21 03:24:27;;;;;;;17.63;5.97;;;;;;;-1.38;85.73;100070.53;8441026;28;20047;-88
2021/12/21 03:28:28;;;;;;;14.07;5.05;;;;;;;-1.38;86.01;100070.53;8446569;28;20123;-87
2021/12/21 03:32:29;;;;;;;15.18;5.45;;;;;;;-1.37;86.16;100061.53;8441606;28;20123;-87
2021/12/21 03:36:30;;;;;;;15.70;5.60;;;;;;;-1.35;86.00;100064.78;8456393;28;20035;-88
2021/12/21 03:40:32;;;;;;;17.33;5.47;;;;;;;-1.38;86.23;100051.97;8440570;28;20046;-85
2021/12/21 03:44:34;;;;;;;23.65;6.32;;;;;;;-1.37;85.98;100056.22;8430764;28;20040;-85
2021/12/21 03:48:35;;;;;;;17.45;5.65;;;;;;;-1.36;85.97;100057.88;8438514;28;20052;-83
2021/12/21 03:52:36;;;;;;;16.95;5.70;;;;;;;-1.37;86.07;100056.22;8427963;28;20040;-85
2021/12/21 03:56:40;;;;;;;17.13;5.72;;;;;;;-1.37;85.95;100050.13;8447407;28;20123;-86
2021/12/21 04:00:40;;;;;;;16.77;5.95;;;;;;;-1.33;86.12;100046.88;8473143;27;20046;-86
2021/12/21 04:04:43;;;;;;;19.83;6.22;;;;;;;-1.36;85.46;100052.56;8438842;28;20048;-85
2021/12/21 04:08:44;;;;;;;18.15;6.00;;;;;;;-1.33;85.67;100057.47;8430349;28;20044;-84
2021/12/21 04:12:45;;;;;;;14.48;6.05;;;;;;;-1.36;85.71;100057.88;8463324;27;20131;-87
2021/12/21 04:16:46;;;;;;;15.77;5.55;;;;;;;-1.35;85.29;100062.16;8473409;27;20055;-88
2021/12/21 04:20:47;;;;;;;16.08;5.45;;;;;;;-1.35;85.35;100059.50;8463426;28;20126;-87
2021/12/21 04:24:48;;;;;;;21.45;6.43;;;;;;;-1.34;85.69;100066.44;8462704;28;20070;-87
2021/12/21 04:28:48;;;;;;;16.67;5.65;;;;;;;-1.35;85.84;100064.78;8454167;28;20048;-84
2021/12/21 04:32:49;;;;;;;18.30;5.20;;;;;;;-1.37;85.64;100066.00;8462298;28;20376;-85
2021/12/21 04:36:50;;;;;;;15.48;5.85;;;;;;;-1.31;85.40;100071.31;8443232;28;20439;-85
2021/12/21 04:40:59;;;;;;;19.23;5.93;;;;;;;-1.30;85.53;100070.28;8443465;27;20063;-84
2021/12/21 04:44:59;;;;;;;18.63;5.95;;;;;;;-1.29;85.36;100077.22;8443843;27;20051;-84
2021/12/21 04:49:00;;;;;;;19.98;5.90;;;;;;;-1.30;85.26;100078.25;8470801;27;20050;-85
2021/12/21 04:53:01;;;;;;;17.80;5.47;;;;;;;-1.27;85.68;100077.81;8472834;27;20043;-83
2021/12/21 04:57:02;;;;;;;23.83;6.05;;;;;;;-1.25;85.42;100079.44;8463653;28;20061;-83
2021/12/21 05:01:04;;;;;;;17.75;6.57;;;;;;;-1.27;85.34;100086.81;8476408;27;20485;-83
2021/12/21 05:05:05;;;;;;;17.45;6.30;;;;;;;-1.31;85.20;100087.19;8444007;27;20054;-84
2021/12/21 05:09:12;;;;;;;19.80;6.63;;;;;;;-1.30;85.26;100088.84;8443949;28;20412;-83
2021/12/21 05:13:14;;;;;;;20.38;5.30;;;;;;;-1.35;85.16;100096.59;8470854;28;20094;-84
2021/12/21 05:17:15;;;;;;;17.75;5.97;;;;;;;-1.35;85.37;100086.00;8442588;28;20514;-85
2021/12/21 05:21:16;;;;;;;18.50;6.32;;;;;;;-1.35;85.27;100078.03;8478921;28;20048;-82
2021/12/21 05:25:17;;;;;;;19.50;6.07;;;;;;;-1.37;85.86;100088.03;8460638;28;20047;-83
2021/12/21 05:29:20;;;;;;;21.67;6.05;;;;;;;-1.37;85.99;100088.03;8467652;28;20047;-83
2021/12/21 05:33:20;;;;;;;17.48;5.88;;;;;;;-1.36;85.71;100084.38;8463635;27;20092;-83
2021/12/21 05:37:21;;;;;;;21.45;6.50;;;;;;;-1.35;86.10;100091.28;8451287;28;20040;-83
2021/12/21 05:41:29;;;;;;;16.67;5.57;;;;;;;-1.35;86.04;100101.06;8468161;28;20143;-84
2021/12/21 05:45:30;;;;;;;15.02;5.50;;;;;;;-1.36;85.78;100084.38;8466775;27;20043;-83
2021/12/21 05:49:33;;;;;;;16.27;5.60;;;;;;;-1.35;86.28;100091.28;8448555;28;20039;-83
2021/12/21 05:53:34;;;;;;;15.88;5.90;;;;;;;-1.34;86.37;100092.94;8448444;27;20062;-83
2021/12/21 05:57:36;;;;;;;14.45;5.15;;;;;;;-1.31;86.26;100103.09;8466342;27;20036;-83
2021/12/21 06:01:37;;;;;;;15.38;5.43;;;;;;;-1.33;85.90;100094.56;8466734;27;20480;-83
2021/12/21 06:05:38;;;;;;;14.25;5.65;;;;;;;-1.30;85.74;100094.13;8431579;28;20055;-83
2021/12/21 06:09:40;;;;;;;13.07;5.22;;;;;;;-1.29;85.30;100101.06;8466847;27;20039;-83
2021/12/21 06:14:11;;;;;;;18.60;5.97;;;;;;;-1.30;85.42;100096.78;8466188;27;20055;-83
2021/12/21 06:22:45;;;;;;;17.60;5.63;;;;;;;-1.33;85.45;100107.81;8450971;27;20479;-83
2021/12/21 06:26:46;;;;;;;15.85;5.93;;;;;;;-1.33;85.79;100114.94;8448011;28;20043;-83
2021/12/21 06:30:47;;;;;;;18.27;6.45;;;;;;;-1.39;86.08;100121.88;8473576;27;20043;-83
2021/12/21 06:34:49;;;;;;;17.20;6.20;;;;;;;-1.39;86.24;100124.53;8473938;27;20056;-83
2021/12/21 06:38:50;;;;;;;16.50;5.95;;;;;;;-1.37;86.59;100130.44;8466768;28;20533;-83
2021/12/21 06:42:51;;;;;;;17.30;5.32;;;;;;;-1.33;86.40;100130.84;8481178;27;20035;-83
2021/12/21 06:51:09;;;;;;;19.35;5.80;;;;;;;-1.35;86.24;100123.09;8471604;27;20089;-83
2021/12/21 06:55:25;;;;;;;19.52;6.00;;;;;;;-1.36;86.33;100132.06;8464787;27;20622;-83
2021/12/21 06:59:26;;;;;;;17.15;5.75;;;;;;;-1.33;86.24;100130.84;8472288;27;20393;-83
2021/12/21 07:03:27;;;;;;;18.10;5.93;;;;;;;-1.32;86.34;100133.28;8464458;28;20571;-83
2021/12/21 07:07:29;;;;;;;16.35;5.82;;;;;;;-1.33;86.58;100136.97;8473449;27;20055;-84
2021/12/21 07:11:50;;;;;;;15.70;5.78;;;;;;;-1.33;86.45;100131.66;8472851;27;20533;-83
2021/12/21 07:20:10;;;;;;;14.60;5.65;;;;;;;-1.32;86.38;100138.56;8472038;27;20032;-84
2021/12/21 07:24:11;;;;;;;17.25;6.10;;;;;;;-1.33;86.41;100142.25;8444959;27;20086;-84
2021/12/21 07:28:12;;;;;;;25.75;6.38;;;;;;;-1.33;86.34;100136.97;8451070;27;20104;-84
2021/12/21 07:32:15;;;;;;;14.93;5.85;;;;;;;-1.32;85.92;100137.75;8461088;27;20047;-83
2021/12/21 07:36:16;;;;;;;18.17;5.65;;;;;;;-1.35;85.32;100139.00;8428295;28;20050;-83
2021/12/21 07:40:17;;;;;;;14.90;5.25;;;;;;;-1.35;85.61;100138.19;8472114;27;20126;-83
2021/12/21 07:44:18;;;;;;;14.75;5.00;;;;;;;-1.33;85.39;100150.22;8472019;27;20040;-84
2021/12/21 07:48:20;;;;;;;17.13;5.68;;;;;;;-1.31;85.25;100150.81;8465510;27;20128;-83
2021/12/21 07:52:20;;;;;;;18.40;5.93;;;;;;;-1.30;85.71;100152.44;8471978;27;20089;-83
2021/12/21 07:56:21;;;;;;;15.55;5.97;;;;;;;-1.22;85.52;100155.91;8428610;28;20040;-84
2021/12/21 08:00:23;;;;;;;21.85;6.97;;;;;;;-1.19;85.25;100152.81;8451843;27;20524;-84
2021/12/21 08:04:27;;;;;;;14.20;5.80;;;;;;;-1.18;85.04;100149.16;8444414;27;20048;-83
2021/12/21 08:08:30;;;;;;;18.92;5.85;;;;;;;-1.13;85.07;100152.00;8466763;27;20131;-84
2021/12/21 08:12:31;;;;;;;17.40;6.20;;;;;;;-1.08;85.54;100160.16;8470649;27;20059;-83
2021/12/21 08:16:32;;;;;;;18.73;7.35;;;;;;;-1.03;85.17;100158.50;8462737;27;20110;-85
2021/12/21 08:20:33;;;;;;;19.80;6.78;;;;;;;-0.99;84.95;100158.91;8481287;27;20067;-84
2021/12/21 08:24:34;;;;;;;18.73;6.95;;;;;;;-0.96;84.92;100163.81;8461106;27;20046;-84
2021/12/21 08:28:35;;;;;;;19.20;6.82;;;;;;;-0.90;84.85;100157.66;8464327;27;20441;-84
2021/12/21 08:32:36;;;;;;;21.58;7.38;;;;;;;-0.86;84.95;100165.00;8458858;28;20471;-84
2021/12/21 08:36:37;;;;;;;18.65;6.95;;;;;;;-0.81;84.56;100172.31;8476106;27;20064;-84
2021/12/21 08:40:39;;;;;;;19.38;6.38;;;;;;;-0.73;84.14;100174.72;8448270;27;20039;-85
2021/12/21 08:44:44;;;;;;;19.50;6.10;;;;;;;-0.67;82.95;100173.91;8468998;27;20051;-84
2021/12/21 08:48:46;;;;;;;18.38;6.18;;;;;;;-0.67;83.12;100184.50;8451530;27;20072;-83
2021/12/21 08:52:47;;;;;;;17.80;5.88;;;;;;;-0.64;82.96;100178.81;8449049;27;20047;-84
2021/12/21 08:56:48;;;;;;;13.43;5.03;;;;;;;-0.57;82.85;100179.56;8465504;27;20533;-84
2021/12/21 09:00:50;;;;;;;140.48;42.08;;;;;;;-0.51;83.13;100189.34;8456284;28;20084;-84
2021/12/21 09:04:51;;;;;;;104.05;33.33;;;;;;;-0.49;83.26;100197.94;8446635;27;20454;-84
2021/12/21 09:08:52;;;;;;;18.52;8.20;;;;;;;-0.42;82.74;100193.38;8468600;27;20051;-84
2021/12/21 09:12:53;;;;;;;21.75;5.95;;;;;;;-0.43;82.51;100194.44;8462381;27;20130;-84
2021/12/21 09:16:53;;;;;;;17.05;6.60;;;;;;;-0.33;82.13;100190.50;8465513;28;20407;-83
2021/12/21 09:20:54;;;;;;;17.58;5.07;;;;;;;-0.37;82.14;100189.31;8467711;28;20051;-84
2021/12/21 09:24:57;;;;;;;15.95;4.95;;;;;;;-0.35;82.17;100192.53;8461383;28;20048;-84
2021/12/21 09:28:58;;;;;;;18.60;7.50;;;;;;;-0.29;82.07;100186.41;8461427;28;20177;-84
2021/12/21 09:32:59;;;;;;;14.25;5.40;;;;;;;-0.27;80.60;100184.34;8464535;28;20492;-84
2021/12/21 09:37:00;;;;;;;19.10;6.35;;;;;;;-0.26;80.83;100188.63;8446074;28;20048;-84
2021/12/21 09:41:01;;;;;;;21.05;7.65;;;;;;;-0.17;80.23;100188.19;8460227;28;20047;-83
2021/12/21 09:45:03;;;;;;;15.48;6.28;;;;;;;-0.16;80.48;100186.34;8460277;28;20087;-84
2021/12/21 09:49:04;;;;;;;12.10;5.82;;;;;;;-0.11;80.52;100190.00;8443540;28;20050;-83
2021/12/21 09:53:05;;;;;;;18.40;6.20;;;;;;;-0.16;79.99;100187.13;8461997;28;20393;-84
2021/12/21 09:57:07;;;;;;;16.35;5.57;;;;;;;-0.15;80.02;100182.63;8444616;28;20039;-85
2021/12/21 10:01:07;;;;;;;15.95;5.22;;;;;;;-0.09;78.70;100176.47;8452345;28;20040;-84
2021/12/21 10:05:11;;;;;;;16.98;6.03;;;;;;;-0.04;78.96;100168.69;8463571;28;20039;-85
2021/12/21 10:09:12;;;;;;;13.43;5.40;;;;;;;0.03;77.92;100168.66;8462040;28;20047;-85
2021/12/21 10:13:16;;;;;;;12.10;4.78;;;;;;;0.13;77.11;100161.84;8468972;27;20059;-83
2021/12/21 10:17:19;;;;;;;16.85;5.85;;;;;;;0.17;76.45;100160.38;8459794;28;20058;-84
2021/12/21 10:21:23;;;;;;;14.25;5.40;;;;;;;0.16;76.28;100164.06;8462578;28;20046;-85
2021/12/21 10:25:25;;;;;;;16.65;5.03;;;;;;;0.22;75.22;100157.88;8463388;27;20115;-84
2021/12/21 10:29:26;;;;;;;14.38;4.72;;;;;;;0.23;73.43;100164.00;8467124;27;20406;-86
2021/12/21 10:33:27;;;;;;;15.07;5.00;;;;;;;0.14;74.50;100163.47;8467639;27;20066;-85
2021/12/21 10:37:31;;;;;;;12.48;4.40;;;;;;;0.22;71.84;100173.81;8418743;28;20044;-84
2021/12/21 10:41:41;;;;;;;11.25;4.10;;;;;;;0.21;71.65;100169.53;8446521;27;20035;-85
2021/12/21 10:45:43;;;;;;;12.18;4.03;;;;;;;0.25;70.65;100154.81;8461857;27;20054;-85
2021/12/21 10:49:44;;;;;;;8.88;4.25;;;;;;;0.29;71.23;100163.97;8453050;27;20048;-85
2021/12/21 10:53:49;;;;;;;12.70;4.18;;;;;;;0.40;71.51;100170.44;8445955;27;20458;-85
2021/12/21 10:58:01;;;;;;;20.95;4.78;;;;;;;0.49;68.29;100168.31;8461020;28;20047;-84
2021/12/21 11:02:17;;;;;;;11.82;4.10;;;;;;;0.42;69.25;100163.84;8451903;27;20394;-83
2021/12/21 11:06:23;;;;;;;17.38;5.05;;;;;;;0.40;68.51;100170.44;8441273;28;20036;-85
2021/12/21 11:10:27;;;;;;;10.10;4.38;;;;;;;0.40;69.25;100155.31;8457586;27;20055;-85
2021/12/21 11:14:29;;;;;;;12.35;4.53;;;;;;;0.31;69.56;100167.22;8444947;28;20039;-85
2021/12/21 11:18:31;;;;;;;12.88;4.50;;;;;;;0.33;68.42;100165.16;8466271;27;20040;-81
2021/12/21 11:22:32;;;;;;;16.35;4.80;;;;;;;0.27;68.69;100157.22;8459327;27;20043;-83
2021/12/21 11:26:35;;;;;;;13.27;4.28;;;;;;;0.25;67.96;100160.13;8452434;27;20130;-83
2021/12/21 11:30:35;;;;;;;11.10;5.07;;;;;;;0.24;68.84;100150.53;8460888;27;20480;-84
2021/12/21 11:34:47;;;;;;;11.82;4.00;;;;;;;0.28;66.54;100151.72;8455597;27;20626;-82
2021/12/21 11:38:47;;;;;;;12.05;4.50;;;;;;;0.24;66.41;100150.53;8443754;27;20084;-84
2021/12/21 11:42:51;;;;;;;12.07;5.30;;;;;;;0.26;65.58;100148.47;8451944;27;20454;-84
2021/12/21 11:47:01;;;;;;;6.72;2.47;;;;;;;0.29;61.93;100153.34;8455297;28;20040;-82
2021/12/21 11:51:06;;;;;;;9.38;2.92;;;;;;;0.21;63.73;100150.16;8402242;27;20044;-82
2021/12/21 11:55:09;;;;;;;6.65;2.70;;;;;;;0.19;64.29;100142.38;8441769;28;20447;-84
2021/12/21 11:59:10;;;;;;;9.93;3.10;;;;;;;0.22;61.16;100141.13;8441047;28;20134;-83
2021/12/21 12:03:13;;;;;;;17.45;5.85;;;;;;;0.13;63.58;100137.94;8388319;28;20045;-83
2021/12/21 12:07:17;;;;;;;13.32;4.20;;;;;;;0.16;65.19;100137.50;8387567;28;20068;-84
2021/12/21 12:11:44;;;;;;;13.45;4.55;;;;;;;0.23;63.76;100143.56;8401531;28;20055;-83
2021/12/21 12:15:47;;;;;;;11.48;4.15;;;;;;;0.21;63.53;100134.22;8257923;28;20555;-83
2021/12/21 12:19:58;;;;;;;13.23;5.13;;;;;;;0.24;63.42;100142.56;8256639;28;20062;-84
2021/12/21 12:24:01;;;;;;;9.75;4.55;;;;;;;0.29;63.98;100137.41;8193177;28;20044;-84
2021/12/21 12:28:02;;;;;;;13.23;4.18;;;;;;;0.31;63.17;100145.97;8189393;28;20063;-81
2021/12/21 12:32:06;;;;;;;12.70;4.53;;;;;;;0.26;63.37;100143.16;8187856;28;20058;-82
2021/12/21 12:36:07;;;;;;;13.40;4.28;;;;;;;0.24;63.94;100128.44;8258478;28;20829;-84
2021/12/21 12:40:14;;;;;;;13.45;5.22;;;;;;;0.26;64.69;100127.22;8255761;28;20100;-84
2021/12/21 12:44:22;;;;;;;13.40;4.80;;;;;;;0.36;65.39;100124.88;8242105;28;20504;-83
2021/12/21 12:48:33;;;;;;;22.20;9.48;;;;;;;0.42;64.54;100131.19;8261358;28;20058;-83
2021/12/21 12:52:33;;;;;;;31.83;12.32;;;;;;;0.42;65.25;100137.28;8319040;28;20043;-84
2021/12/21 12:56:39;;;;;;;15.18;5.28;;;;;;;0.54;65.82;100128.59;8467688;27;20093;-83
2021/12/21 13:00:43;;;;;;;14.77;5.50;;;;;;;0.77;63.61;100128.78;8439939;28;20043;-83
2021/12/21 13:04:44;;;;;;;14.18;5.55;;;;;;;0.72;64.36;100125.97;8455910;27;20093;-83
2021/12/21 13:08:45;;;;;;;23.77;6.57;;;;;;;0.65;65.08;100125.22;8439441;28;20484;-84
2021/12/21 13:12:55;;;;;;;47.22;11.60;;;;;;;0.59;65.88;100131.41;8455591;28;20067;-84
2021/12/21 13:16:58;;;;;;;15.43;5.20;;;;;;;0.43;65.86;100128.28;8458669;28;20089;-85
2021/12/21 13:21:00;;;;;;;15.75;5.07;;;;;;;0.43;66.68;100133.59;8422497;28;20040;-84
2021/12/21 13:25:03;;;;;;;16.02;5.47;;;;;;;0.57;66.66;100130.84;8430407;28;20404;-84
2021/12/21 13:29:06;;;;;;;18.30;4.80;;;;;;;0.52;66.08;100136.00;8439744;28;20122;-84
2021/12/21 13:33:07;;;;;;;13.23;5.07;;;;;;;0.52;66.27;100130.69;8448006;28;20050;-84
2021/12/21 13:37:13;;;;;;;14.57;4.65;;;;;;;0.40;67.26;100130.56;8454321;28;20039;-85
2021/12/21 13:41:16;;;;;;;16.67;5.60;;;;;;;0.27;67.10;100134.13;8445026;28;20384;-84
2021/12/21 13:45:17;;;;;;;28.17;9.90;;;;;;;0.14;67.13;100139.56;8435199;28;20040;-84
2021/12/21 13:49:17;;;;;;;14.93;5.35;;;;;;;-0.03;67.69;100127.84;8459720;28;20082;-85
2021/12/21 13:53:19;;;;;;;20.40;5.03;;;;;;;-0.18;68.47;100140.59;8452067;28;20100;-84
2021/12/21 13:57:21;;;;;;;14.65;4.78;;;;;;;-0.29;69.16;100135.97;8445860;27;20501;-84
2021/12/21 14:01:27;;;;;;;10.43;4.10;;;;;;;-0.38;69.56;100146.03;8427365;27;20038;-84
2021/12/21 14:05:42;;;;;;;12.27;4.85;;;;;;;-0.45;70.09;100146.06;8446114;27;20050;-84
2021/12/21 14:09:43;;;;;;;11.20;3.83;;;;;;;-0.53;70.77;100138.31;8445932;27;20044;-84
2021/12/21 14:13:46;;;;;;;13.88;5.05;;;;;;;-0.59;71.04;100133.88;8454794;28;20434;-84
2021/12/21 14:17:47;;;;;;;9.73;4.07;;;;;;;-0.70;71.73;100137.19;8457322;27;20043;-84
2021/12/21 14:21:51;;;;;;;9.15;3.92;;;;;;;-0.81;72.29;100140.50;8473033;27;20119;-84
2021/12/21 14:25:52;;;;;;;13.60;4.43;;;;;;;-0.90;72.64;100136.47;8436929;28;20040;-84
2021/12/21 14:30:04;;;;;;;12.93;4.85;;;;;;;-0.96;73.00;100142.59;8447292;28;20040;-84
2021/12/21 14:34:05;;;;;;;13.70;4.75;;;;;;;-1.00;72.66;100146.66;8459438;27;20552;-84
2021/12/21 14:38:12;;;;;;;16.55;4.53;;;;;;;-1.03;73.17;100141.78;8453988;28;20051;-84
2021/12/21 14:42:16;;;;;;;13.50;4.90;;;;;;;-1.10;73.43;100136.50;8432951;28;20040;-84
2021/12/21 14:46:19;;;;;;;11.55;3.88;;;;;;;-1.14;74.10;100145.06;8459919;27;20060;-85
2021/12/21 14:50:21;;;;;;;13.30;4.28;;;;;;;-1.18;74.43;100141.22;8451038;27;20036;-85
2021/12/21 14:54:28;;;;;;;17.63;4.13;;;;;;;-1.22;74.43;100147.94;8456068;27;20484;-84
2021/12/21 14:58:29;;;;;;;14.77;4.38;;;;;;;-1.30;74.82;100136.53;8453982;27;20043;-84
2021/12/21 15:06:32;;;;;;;9.77;4.50;;;;;;;-1.35;75.39;100133.69;8444932;28;20052;-84
2021/12/21 15:10:36;;;;;;;13.00;3.97;;;;;;;-1.40;75.54;100130.84;8445259;27;20173;-84
2021/12/21 15:14:37;;;;;;;14.07;5.60;;;;;;;-1.45;75.67;100133.31;8445910;28;20469;-84
2021/12/21 15:18:37;;;;;;;16.55;4.68;;;;;;;-1.54;76.08;100134.53;8445676;28;20083;-85
2021/12/21 15:22:39;;;;;;;13.07;5.45;;;;;;;-1.62;75.90;100142.69;8461596;27;20587;-84
2021/12/21 15:26:40;;;;;;;18.52;5.93;;;;;;;-1.69;76.52;100130.47;8466634;27;20170;-84
2021/12/21 15:30:41;;;;;;;14.88;5.00;;;;;;;-1.78;76.76;100127.19;8463150;28;20043;-83
2021/12/21 15:34:43;;;;;;;20.17;7.78;;;;;;;-1.88;77.17;100126.78;8422733;28;20044;-84
2021/12/21 15:38:44;;;;;;;35.05;11.18;;;;;;;-1.97;77.17;100128.00;8447463;28;20450;-84
2021/12/21 15:42:47;;;;;;;30.60;11.20;;;;;;;-2.07;77.24;100127.59;8442731;28;20028;-84
2021/12/21 15:46:49;;;;;;;41.45;14.80;;;;;;;-2.11;78.11;100131.69;8435086;28;20055;-84
2021/12/21 15:50:50;;;;;;;27.65;9.75;;;;;;;-2.17;77.56;100139.38;8424183;28;20145;-84
2021/12/21 15:54:52;;;;;;;42.55;15.63;;;;;;;-2.20;78.16;100134.50;8458748;27;20398;-83
2021/12/21 15:58:52;;;;;;;57.33;18.65;;;;;;;-2.25;78.19;100126.34;8451480;27;20118;-84
2021/12/21 16:02:55;;;;;;;90.15;27.73;;;;;;;-2.30;78.54;100134.06;8459046;27;20046;-84
2021/12/21 16:06:56;;;;;;;58.63;19.73;;;;;;;-2.36;78.73;100137.50;8431789;28;20051;-84
2021/12/21 16:10:57;;;;;;;72.35;22.80;;;;;;;-2.41;78.84;100137.28;8440336;28;20044;-84
2021/12/21 16:14:57;;;;;;;85.50;25.85;;;;;;;-2.48;78.92;100141.75;8458818;27;20142;-85
2021/12/21 16:18:58;;;;;;;91.45;27.98;;;;;;;-2.52;79.08;100135.22;8460707;27;20040;-85
2021/12/21 16:22:59;;;;;;;74.65;24.40;;;;;;;-2.67;79.71;100142.50;8445292;28;20043;-84
2021/12/21 16:27:00;;;;;;;57.88;21.88;;;;;;;-2.77;79.87;100142.06;8422084;28;20048;-86
2021/12/21 16:31:01;;;;;;;70.07;24.27;;;;;;;-2.81;79.93;100144.28;8430147;28;20138;-84
2021/12/21 16:35:03;;;;;;;75.05;25.95;;;;;;;-2.85;79.90;100145.66;8420684;28;20179;-82
2021/12/21 16:39:06;;;;;;;70.85;25.95;;;;;;;-2.88;79.96;100150.53;8409368;28;20064;-84
2021/12/21 16:43:11;;;;;;;86.00;28.27;;;;;;;-2.94;80.06;100141.56;8429840;28;20066;-83
2021/12/21 16:47:12;;;;;;;82.18;27.85;;;;;;;-3.01;80.52;100146.00;8329136;28;20048;-84
2021/12/21 16:51:13;;;;;;;83.75;29.17;;;;;;;-3.06;80.79;100138.66;8315178;28;20140;-83
2021/12/21 16:55:14;;;;;;;133.50;39.15;;;;;;;-3.14;81.00;100149.41;8281472;28;20093;-84
2021/12/21 16:59:15;;;;;;;129.27;37.85;;;;;;;-3.12;81.03;100155.28;8376329;28;20048;-83
2021/12/21 17:03:16;;;;;;;170.27;44.42;;;;;;;-3.08;81.30;100156.53;8365728;28;20071;-84
2021/12/21 17:07:17;;;;;;;175.25;48.47;;;;;;;-3.02;81.01;100155.78;8365834;28;20072;-84
2021/12/21 17:11:19;;;;;;;173.15;41.67;;;;;;;-2.95;80.98;100153.13;8361646;28;20076;-83
2021/12/21 17:15:21;;;;;;;114.30;34.55;;;;;;;-2.94;80.54;100167.19;8355406;28;20045;-83
2021/12/21 17:19:22;;;;;;;105.60;32.05;;;;;;;-3.02;81.05;100168.16;8413099;28;20149;-83
2021/12/21 17:23:24;;;;;;;112.93;34.08;;;;;;;-2.91;81.47;100174.72;8425842;28;20507;-83
2021/12/21 17:27:24;;;;;;;95.78;29.52;;;;;;;-2.82;80.82;100170.91;8426643;28;20032;-83
2021/12/21 17:31:27;;;;;;;93.95;30.27;;;;;;;-2.75;81.29;100166.47;8432303;28;20119;-82
2021/12/21 17:35:27;;;;;;;111.93;31.73;;;;;;;-2.71;81.59;100167.72;8433213;28;20069;-82
2021/12/21 17:39:29;;;;;;;90.03;26.00;;;;;;;-2.74;81.36;100160.97;8435608;28;20032;-83
2021/12/21 17:43:29;;;;;;;85.82;25.30;;;;;;;-2.69;81.74;100155.09;8433750;28;20560;-82
2021/12/21 17:47:30;;;;;;;86.05;27.17;;;;;;;-2.61;81.39;100168.16;8440555;28;20119;-83
2021/12/21 17:51:31;;;;;;;85.93;29.00;;;;;;;-2.62;81.76;100166.53;8425155;28;20111;-83
2021/12/21 17:55:32;;;;;;;73.78;24.55;;;;;;;-2.56;81.76;100171.03;8423221;28;20040;-81
2021/12/21 17:59:33;;;;;;;61.38;22.20;;;;;;;-2.55;82.13;100167.38;8429636;28;20126;-82
2021/12/21 18:03:34;;;;;;;71.22;22.23;;;;;;;-2.52;82.39;100172.25;8433017;28;20062;-83
2021/12/21 18:07:38;;;;;;;59.65;19.80;;;;;;;-2.45;81.92;100178.38;8432587;28;20464;-83
2021/12/21 18:11:39;;;;;;;59.72;20.17;;;;;;;-2.44;82.28;100164.16;8444321;28;20056;-82
2021/12/21 18:15:40;;;;;;;63.05;18.92;;;;;;;-2.45;82.72;100162.53;8466633;28;20059;-82
2021/12/21 18:19:41;;;;;;;71.78;21.90;;;;;;;-2.46;82.65;100155.59;8461433;28;20051;-82
2021/12/21 18:23:42;;;;;;;109.75;36.22;;;;;;;-2.44;82.54;100164.16;8453578;27;20084;-82
2021/12/21 18:27:43;;;;;;;68.78;24.67;;;;;;;-2.48;83.44;100168.19;8444558;27;20081;-83
2021/12/21 18:31:45;;;;;;;75.78;27.02;;;;;;;-2.40;83.24;100181.25;8464514;27;20047;-83
2021/12/21 18:35:46;;;;;;;88.35;24.85;;;;;;;-2.34;83.38;100185.75;8466129;28;20044;-83
2021/12/21 18:39:47;;;;;;;67.97;24.00;;;;;;;-2.26;83.25;100177.63;8483421;27;20159;-82
2021/12/21 18:43:49;;;;;;;67.50;22.98;;;;;;;-2.20;82.86;100192.72;8465583;27;20454;-83
2021/12/21 18:47:50;;;;;;;62.47;20.80;;;;;;;-2.15;82.98;100190.28;8480212;27;20134;-83
2021/12/21 18:51:51;;;;;;;66.75;22.08;;;;;;;-2.14;83.21;100202.50;8449894;27;20620;-83
2021/12/21 18:55:54;;;;;;;62.75;20.35;;;;;;;-2.16;82.80;100193.94;8474125;27;20158;-83
2021/12/21 18:59:55;;;;;;;63.22;19.65;;;;;;;-2.13;83.20;100188.25;8468166;27;20679;-83
2021/12/21 19:03:55;;;;;;;64.93;20.48;;;;;;;-2.16;83.51;100193.94;8472967;27;20077;-83
2021/12/21 19:07:57;;;;;;;54.25;19.48;;;;;;;-2.15;83.47;100195.56;8448930;27;20047;-83
2021/12/21 19:12:00;;;;;;;51.60;17.73;;;;;;;-2.11;83.52;100200.47;8409757;27;20135;-83
2021/12/21 19:16:06;;;;;;;54.95;18.63;;;;;;;-2.06;83.61;100203.34;8456300;27;20071;-83
2021/12/21 19:20:09;;;;;;;64.07;20.27;;;;;;;-2.02;83.43;100209.88;8464375;27;20051;-84
2021/12/21 19:24:11;;;;;;;57.63;18.13;;;;;;;-1.98;83.39;100211.91;8361575;28;20075;-84
2021/12/21 19:28:15;;;;;;;48.40;18.05;;;;;;;-1.99;83.71;100210.28;8359154;28;20128;-83
2021/12/21 19:32:17;;;;;;;51.15;20.15;;;;;;;-1.98;83.63;100217.19;8358838;28;20103;-83
2021/12/21 19:36:18;;;;;;;52.28;18.80;;;;;;;-1.95;84.13;100205.38;8308731;28;20041;-82
2021/12/21 19:40:21;;;;;;;53.38;22.38;;;;;;;-1.96;84.11;100203.78;8357250;28;20187;-82